sensor_id;sensor_type;location;lat;lon;timestamp;pressure;altitude;pressure_sealevel;temperature;humidity
18697;BME280;22617;43.690;27.956;2022-11-20T00:00:33;98524.59;;;13.80;96.12
18697;BME280;22617;43.690;27.956;2022-11-20T00:05:38;98501.03;;;13.80;96.69
18697;BME280;22617;43.690;27.956;2022-11-20T00:10:42;98510.53;;;13.84;96.63
18697;BME280;22617;43.690;27.956;2022-11-20T00:15:45;98517.09;;;13.67;97.12
18697;BME280;22617;43.690;27.956;2022-11-20T00:20:50;98501.91;;;13.79;97.05
18697;BME280;22617;43.690;27.956;2022-11-20T00:25:53;98489.63;;;13.81;97.75
18697;BME280;22617;43.690;27.956;2022-11-20T00:31:01;98487.56;;;13.95;98.45
18697;BME280;22617;43.690;27.956;2022-11-20T00:36:08;98473.97;;;14.14;99.04
18697;BME280;22617;43.690;27.956;2022-11-20T00:41:13;98473.13;;;14.12;99.30
18697;BME280;22617;43.690;27.956;2022-11-20T00:46:18;98487.84;;;14.17;99.70
18697;BME280;22617;43.690;27.956;2022-11-20T00:51:25;98466.28;;;14.06;99.49
18697;BME280;22617;43.690;27.956;2022-11-20T00:56:29;98465.13;;;14.16;99.62
18697;BME280;22617;43.690;27.956;2022-11-20T01:01:32;98452.16;;;14.12;99.42
18697;BME280;22617;43.690;27.956;2022-11-20T01:06:38;98438.19;;;14.11;99.33
18697;BME280;22617;43.690;27.956;2022-11-20T01:11:43;98443.50;;;14.10;98.96
18697;BME280;22617;43.690;27.956;2022-11-20T01:16:48;98433.69;;;14.16;99.24
18697;BME280;22617;43.690;27.956;2022-11-20T01:21:54;98437.25;;;14.14;99.28
18697;BME280;22617;43.690;27.956;2022-11-20T01:26:57;98419.81;;;14.13;99.04
18697;BME280;22617;43.690;27.956;2022-11-20T01:32:01;98429.66;;;14.37;99.93
18697;BME280;22617;43.690;27.956;2022-11-20T01:37:06;98423.97;;;14.81;99.90
18697;BME280;22617;43.690;27.956;2022-11-20T01:42:09;98413.31;;;15.14;99.40
18697;BME280;22617;43.690;27.956;2022-11-20T01:47:33;98404.75;;;15.35;98.09
18697;BME280;22617;43.690;27.956;2022-11-20T01:52:41;98400.75;;;15.50;96.65
18697;BME280;22617;43.690;27.956;2022-11-20T01:57:47;98391.97;;;15.52;95.95
18697;BME280;22617;43.690;27.956;2022-11-20T02:02:53;98393.38;;;15.62;95.48
18697;BME280;22617;43.690;27.956;2022-11-20T02:08:00;98393.47;;;15.84;94.52
18697;BME280;22617;43.690;27.956;2022-11-20T02:13:06;98410.22;;;15.82;93.76
18697;BME280;22617;43.690;27.956;2022-11-20T02:18:27;98387.00;;;15.94;93.26
18697;BME280;22617;43.690;27.956;2022-11-20T02:23:36;98379.56;;;16.30;92.30
18697;BME280;22617;43.690;27.956;2022-11-20T02:28:42;98383.69;;;16.61;90.54
18697;BME280;22617;43.690;27.956;2022-11-20T02:33:46;98387.91;;;16.65;89.77
18697;BME280;22617;43.690;27.956;2022-11-20T02:38:49;98383.81;;;16.56;89.89
18697;BME280;22617;43.690;27.956;2022-11-20T02:43:54;98385.28;;;16.65;90.05
18697;BME280;22617;43.690;27.956;2022-11-20T02:48:58;98380.66;;;16.71;89.49
18697;BME280;22617;43.690;27.956;2022-11-20T02:54:01;98390.25;;;16.94;88.71
18697;BME280;22617;43.690;27.956;2022-11-20T02:59:06;98371.84;;;17.16;87.21
18697;BME280;22617;43.690;27.956;2022-11-20T03:04:10;98373.38;;;17.21;87.02
18697;BME280;22617;43.690;27.956;2022-11-20T03:09:13;98377.78;;;17.21;86.71
18697;BME280;22617;43.690;27.956;2022-11-20T03:14:18;98383.41;;;17.33;86.16
18697;BME280;22617;43.690;27.956;2022-11-20T03:19:21;98383.16;;;17.39;85.78
18697;BME280;22617;43.690;27.956;2022-11-20T03:24:25;98372.16;;;17.30;86.12
18697;BME280;22617;43.690;27.956;2022-11-20T03:29:30;98359.69;;;17.33;86.21
18697;BME280;22617;43.690;27.956;2022-11-20T03:34:34;98349.16;;;17.33;86.50
18697;BME280;22617;43.690;27.956;2022-11-20T03:39:37;98353.13;;;17.43;85.96
18697;BME280;22617;43.690;27.956;2022-11-20T03:44:42;98345.22;;;17.43;85.71
18697;BME280;22617;43.690;27.956;2022-11-20T03:49:45;98335.59;;;17.42;85.70
18697;BME280;22617;43.690;27.956;2022-11-20T03:54:49;98325.94;;;17.43;85.39
18697;BME280;22617;43.690;27.956;2022-11-20T03:59:54;98318.06;;;17.41;84.91
18697;BME280;22617;43.690;27.956;2022-11-20T04:04:57;98312.03;;;17.39;84.59
18697;BME280;22617;43.690;27.956;2022-11-20T04:10:00;98305.31;;;17.53;83.41
18697;BME280;22617;43.690;27.956;2022-11-20T04:15:06;98294.53;;;17.59;82.56
18697;BME280;22617;43.690;27.956;2022-11-20T04:20:10;98289.13;;;17.62;82.25
18697;BME280;22617;43.690;27.956;2022-11-20T04:25:13;98281.41;;;17.77;80.96
18697;BME280;22617;43.690;27.956;2022-11-20T04:30:18;98279.53;;;17.79;80.64
18697;BME280;22617;43.690;27.956;2022-11-20T04:35:22;98277.13;;;17.75;80.86
18697;BME280;22617;43.690;27.956;2022-11-20T04:40:25;98279.63;;;17.58;81.61
18697;BME280;22617;43.690;27.956;2022-11-20T04:45:31;98283.72;;;17.44;82.37
18697;BME280;22617;43.690;27.956;2022-11-20T04:50:39;98294.38;;;17.41;82.43
18697;BME280;22617;43.690;27.956;2022-11-20T04:55:43;98291.47;;;17.48;82.40
18697;BME280;22617;43.690;27.956;2022-11-20T05:00:48;98305.75;;;17.42;82.12
18697;BME280;22617;43.690;27.956;2022-11-20T05:05:53;98304.03;;;17.41;82.17
18697;BME280;22617;43.690;27.956;2022-11-20T05:11:00;98305.19;;;17.35;82.36
18697;BME280;22617;43.690;27.956;2022-11-20T05:16:07;98314.66;;;17.39;82.02
18697;BME280;22617;43.690;27.956;2022-11-20T05:21:12;98309.44;;;17.38;82.00
18697;BME280;22617;43.690;27.956;2022-11-20T05:26:17;98321.66;;;17.40;81.77
18697;BME280;22617;43.690;27.956;2022-11-20T05:31:24;98319.03;;;17.40;81.89
18697;BME280;22617;43.690;27.956;2022-11-20T05:36:30;98318.22;;;17.38;81.78
18697;BME280;22617;43.690;27.956;2022-11-20T05:41:33;98324.66;;;17.31;82.28
18697;BME280;22617;43.690;27.956;2022-11-20T05:46:38;98326.25;;;17.35;82.27
18697;BME280;22617;43.690;27.956;2022-11-20T05:51:41;98329.13;;;17.29;82.52
18697;BME280;22617;43.690;27.956;2022-11-20T05:56:45;98338.19;;;17.22;82.68
18697;BME280;22617;43.690;27.956;2022-11-20T06:01:50;98355.16;;;17.37;81.95
18697;BME280;22617;43.690;27.956;2022-11-20T06:06:53;98357.88;;;17.35;82.08
18697;BME280;22617;43.690;27.956;2022-11-20T06:11:56;98353.91;;;17.25;82.33
18697;BME280;22617;43.690;27.956;2022-11-20T06:17:01;98349.34;;;17.29;82.74
18697;BME280;22617;43.690;27.956;2022-11-20T06:22:05;98367.75;;;17.30;82.71
18697;BME280;22617;43.690;27.956;2022-11-20T06:27:08;98353.31;;;17.39;82.34
18697;BME280;22617;43.690;27.956;2022-11-20T06:32:13;98351.41;;;17.42;82.22
18697;BME280;22617;43.690;27.956;2022-11-20T06:37:16;98361.28;;;17.59;81.83
18697;BME280;22617;43.690;27.956;2022-11-20T06:42:20;98363.72;;;17.64;81.38
18697;BME280;22617;43.690;27.956;2022-11-20T06:47:25;98371.03;;;17.56;81.69
18697;BME280;22617;43.690;27.956;2022-11-20T06:52:28;98367.28;;;17.63;81.83
18697;BME280;22617;43.690;27.956;2022-11-20T06:57:32;98357.25;;;17.71;81.27
18697;BME280;22617;43.690;27.956;2022-11-20T07:02:37;98353.84;;;17.69;81.23
18697;BME280;22617;43.690;27.956;2022-11-20T07:07:40;98360.03;;;17.88;80.68
18697;BME280;22617;43.690;27.956;2022-11-20T07:12:49;98358.16;;;17.90;80.15
18697;BME280;22617;43.690;27.956;2022-11-20T07:17:54;98366.16;;;17.89;80.08
18697;BME280;22617;43.690;27.956;2022-11-20T07:22:58;98368.84;;;17.87;79.90
18697;BME280;22617;43.690;27.956;2022-11-20T07:28:01;98371.16;;;17.95;79.56
18697;BME280;22617;43.690;27.956;2022-11-20T07:33:06;98366.44;;;17.82;80.18
18697;BME280;22617;43.690;27.956;2022-11-20T07:38:10;98359.38;;;18.03;79.32
18697;BME280;22617;43.690;27.956;2022-11-20T07:43:13;98374.25;;;18.04;79.32
18697;BME280;22617;43.690;27.956;2022-11-20T07:48:18;98375.44;;;18.17;78.98
18697;BME280;22617;43.690;27.956;2022-11-20T07:53:22;98365.31;;;18.27;78.60
18697;BME280;22617;43.690;27.956;2022-11-20T07:58:25;98360.34;;;18.40;78.12
18697;BME280;22617;43.690;27.956;2022-11-20T08:03:30;98364.78;;;18.77;77.41
18697;BME280;22617;43.690;27.956;2022-11-20T08:08:33;98372.25;;;19.04;76.46
18697;BME280;22617;43.690;27.956;2022-11-20T08:13:43;98370.97;;;18.76;76.53
18697;BME280;22617;43.690;27.956;2022-11-20T08:19:06;98379.28;;;18.68;76.88
18697;BME280;22617;43.690;27.956;2022-11-20T08:24:10;98383.97;;;18.80;76.55
18697;BME280;22617;43.690;27.956;2022-11-20T08:29:13;98391.47;;;18.70;76.72
18697;BME280;22617;43.690;27.956;2022-11-20T08:34:18;98387.41;;;18.63;76.93
18697;BME280;22617;43.690;27.956;2022-11-20T08:39:22;98397.47;;;18.74;76.71
18697;BME280;22617;43.690;27.956;2022-11-20T08:44:25;98397.81;;;18.85;76.35
18697;BME280;22617;43.690;27.956;2022-11-20T08:49:30;98390.25;;;18.96;75.47
18697;BME280;22617;43.690;27.956;2022-11-20T08:54:33;98383.97;;;18.99;74.92
18697;BME280;22617;43.690;27.956;2022-11-20T08:59:37;98388.09;;;19.04;74.69
18697;BME280;22617;43.690;27.956;2022-11-20T09:05:03;98377.41;;;19.07;74.61
18697;BME280;22617;43.690;27.956;2022-11-20T09:10:07;98367.53;;;19.11;74.82
18697;BME280;22617;43.690;27.956;2022-11-20T09:15:26;98363.91;;;19.13;74.60
18697;BME280;22617;43.690;27.956;2022-11-20T09:20:31;98376.03;;;19.17;74.09
18697;BME280;22617;43.690;27.956;2022-11-20T09:25:34;98367.88;;;19.22;74.41
18697;BME280;22617;43.690;27.956;2022-11-20T09:30:38;98383.97;;;19.35;74.27
18697;BME280;22617;43.690;27.956;2022-11-20T09:35:43;98365.91;;;19.44;73.72
18697;BME280;22617;43.690;27.956;2022-11-20T09:40:51;98367.16;;;19.54;73.16
18697;BME280;22617;43.690;27.956;2022-11-20T09:46:04;98367.38;;;19.50;72.90
18697;BME280;22617;43.690;27.956;2022-11-20T09:51:23;98379.75;;;19.49;72.63
18697;BME280;22617;43.690;27.956;2022-11-20T09:56:33;98354.59;;;19.41;73.09
18697;BME280;22617;43.690;27.956;2022-11-20T10:01:37;98360.75;;;19.41;73.50
18697;BME280;22617;43.690;27.956;2022-11-20T10:06:50;98349.56;;;19.36;73.99
18697;BME280;22617;43.690;27.956;2022-11-20T10:12:19;98362.47;;;19.42;73.53
18697;BME280;22617;43.690;27.956;2022-11-20T10:17:46;98361.59;;;19.42;73.33
18697;BME280;22617;43.690;27.956;2022-11-20T10:23:11;98354.53;;;19.42;73.21
18697;BME280;22617;43.690;27.956;2022-11-20T10:28:35;98362.66;;;19.38;73.80
18697;BME280;22617;43.690;27.956;2022-11-20T10:33:51;98343.16;;;19.40;73.55
18697;BME280;22617;43.690;27.956;2022-11-20T10:39:20;98340.38;;;19.43;73.57
18697;BME280;22617;43.690;27.956;2022-11-20T10:44:27;98342.66;;;19.51;73.33
18697;BME280;22617;43.690;27.956;2022-11-20T10:49:52;98352.88;;;19.23;74.29
18697;BME280;22617;43.690;27.956;2022-11-20T10:55:05;98360.91;;;16.60;73.71
18697;BME280;22617;43.690;27.956;2022-11-20T11:00:12;98397.13;;;16.05;74.66
18697;BME280;22617;43.690;27.956;2022-11-20T11:05:29;98404.31;;;14.67;76.58
18697;BME280;22617;43.690;27.956;2022-11-20T11:10:43;98414.81;;;14.05;77.92
18697;BME280;22617;43.690;27.956;2022-11-20T11:15:51;98432.81;;;13.51;78.35
18697;BME280;22617;43.690;27.956;2022-11-20T11:20:55;98432.69;;;12.40;79.68
18697;BME280;22617;43.690;27.956;2022-11-20T11:26:02;98432.41;;;12.09;80.67
18697;BME280;22617;43.690;27.956;2022-11-20T11:31:06;98433.91;;;11.76;81.72
18697;BME280;22617;43.690;27.956;2022-11-20T11:36:18;98438.78;;;11.46;83.17
18697;BME280;22617;43.690;27.956;2022-11-20T11:41:29;98436.88;;;11.55;83.68
18697;BME280;22617;43.690;27.956;2022-11-20T11:46:35;98443.91;;;12.02;83.35
18697;BME280;22617;43.690;27.956;2022-11-20T11:51:53;98449.66;;;12.19;82.47
18697;BME280;22617;43.690;27.956;2022-11-20T11:57:05;98443.41;;;12.68;81.11
18697;BME280;22617;43.690;27.956;2022-11-20T12:02:24;98453.66;;;13.19;80.73
18697;BME280;22617;43.690;27.956;2022-11-20T12:07:38;98444.06;;;13.53;79.51
18697;BME280;22617;43.690;27.956;2022-11-20T12:12:53;98446.03;;;13.80;79.12
18697;BME280;22617;43.690;27.956;2022-11-20T12:17:59;98448.16;;;13.98;78.21
18697;BME280;22617;43.690;27.956;2022-11-20T12:23:09;98440.00;;;14.09;78.12
18697;BME280;22617;43.690;27.956;2022-11-20T12:28:33;98438.41;;;14.04;78.05
18697;BME280;22617;43.690;27.956;2022-11-20T12:34:06;98434.34;;;14.24;77.66
18697;BME280;22617;43.690;27.956;2022-11-20T12:39:29;98434.22;;;14.29;77.31
18697;BME280;22617;43.690;27.956;2022-11-20T12:50:17;98438.63;;;14.27;77.59
18697;BME280;22617;43.690;27.956;2022-11-20T12:55:33;98425.13;;;14.42;77.52
18697;BME280;22617;43.690;27.956;2022-11-20T13:00:47;98422.41;;;14.45;78.07
18697;BME280;22617;43.690;27.956;2022-11-20T13:06:00;98412.56;;;14.53;79.22
18697;BME280;22617;43.690;27.956;2022-11-20T13:11:14;98416.81;;;14.87;78.96
18697;BME280;22617;43.690;27.956;2022-11-20T13:16:25;98416.53;;;14.96;79.00
18697;BME280;22617;43.690;27.956;2022-11-20T13:21:39;98401.28;;;15.07;78.48
18697;BME280;22617;43.690;27.956;2022-11-20T13:26:43;98399.72;;;15.01;78.48
18697;BME280;22617;43.690;27.956;2022-11-20T13:31:48;98422.94;;;15.15;78.78
18697;BME280;22617;43.690;27.956;2022-11-20T13:36:53;98433.03;;;15.27;78.25
18697;BME280;22617;43.690;27.956;2022-11-20T13:41:59;98423.38;;;15.27;78.44
18697;BME280;22617;43.690;27.956;2022-11-20T13:47:20;98419.22;;;15.20;78.52
18697;BME280;22617;43.690;27.956;2022-11-20T13:52:38;98426.44;;;15.14;78.40
18697;BME280;22617;43.690;27.956;2022-11-20T13:57:55;98428.22;;;15.13;77.72
18697;BME280;22617;43.690;27.956;2022-11-20T14:03:12;98424.81;;;14.82;78.83
18697;BME280;22617;43.690;27.956;2022-11-20T14:08:26;98427.66;;;14.74;78.55
18697;BME280;22617;43.690;27.956;2022-11-20T14:13:30;98415.84;;;14.61;79.08
18697;BME280;22617;43.690;27.956;2022-11-20T14:18:35;98414.66;;;14.71;78.81
18697;BME280;22617;43.690;27.956;2022-11-20T14:23:38;98412.78;;;14.75;78.30
18697;BME280;22617;43.690;27.956;2022-11-20T14:28:42;98429.06;;;14.86;78.63
18697;BME280;22617;43.690;27.956;2022-11-20T14:33:47;98423.97;;;14.81;78.26
18697;BME280;22617;43.690;27.956;2022-11-20T14:38:51;98430.06;;;14.82;78.48
18697;BME280;22617;43.690;27.956;2022-11-20T14:43:57;98433.69;;;14.78;78.52
18697;BME280;22617;43.690;27.956;2022-11-20T14:49:02;98423.44;;;14.70;78.51
18697;BME280;22617;43.690;27.956;2022-11-20T14:54:10;98422.97;;;14.56;78.74
18697;BME280;22617;43.690;27.956;2022-11-20T14:59:22;98423.50;;;14.38;78.64
18697;BME280;22617;43.690;27.956;2022-11-20T15:04:27;98428.44;;;14.16;80.03
18697;BME280;22617;43.690;27.956;2022-11-20T15:09:31;98414.59;;;14.11;79.75
18697;BME280;22617;43.690;27.956;2022-11-20T15:14:36;98412.38;;;13.97;80.43
18697;BME280;22617;43.690;27.956;2022-11-20T15:19:41;98400.97;;;14.00;80.27
18697;BME280;22617;43.690;27.956;2022-11-20T15:24:44;98406.31;;;13.95;80.36
18697;BME280;22617;43.690;27.956;2022-11-20T15:29:48;98401.13;;;13.94;79.92
18697;BME280;22617;43.690;27.956;2022-11-20T15:34:53;98402.13;;;13.88;80.26
18697;BME280;22617;43.690;27.956;2022-11-20T15:39:56;98398.41;;;13.31;81.19
18697;BME280;22617;43.690;27.956;2022-11-20T15:45:00;98404.72;;;13.22;81.56
18697;BME280;22617;43.690;27.956;2022-11-20T15:50:09;98424.44;;;12.98;81.62
18697;BME280;22617;43.690;27.956;2022-11-20T15:55:16;98420.19;;;12.94;81.93
18697;BME280;22617;43.690;27.956;2022-11-20T16:00:20;98432.97;;;12.68;82.63
18697;BME280;22617;43.690;27.956;2022-11-20T16:05:29;98430.19;;;12.76;82.89
18697;BME280;22617;43.690;27.956;2022-11-20T16:10:32;98447.66;;;12.75;82.12
18697;BME280;22617;43.690;27.956;2022-11-20T16:15:36;98402.75;;;12.56;83.40
18697;BME280;22617;43.690;27.956;2022-11-20T16:20:51;98455.03;;;12.55;83.09
18697;BME280;22617;43.690;27.956;2022-11-20T16:25:55;98403.56;;;12.57;83.19
18697;BME280;22617;43.690;27.956;2022-11-20T16:31:08;98436.38;;;12.30;83.71
18697;BME280;22617;43.690;27.956;2022-11-20T16:36:14;98406.63;;;12.37;85.66
18697;BME280;22617;43.690;27.956;2022-11-20T16:41:18;98420.94;;;12.61;85.32
18697;BME280;22617;43.690;27.956;2022-11-20T16:46:22;98436.34;;;12.73;84.67
18697;BME280;22617;43.690;27.956;2022-11-20T16:51:29;98436.31;;;12.75;83.78
18697;BME280;22617;43.690;27.956;2022-11-20T16:56:33;98452.91;;;12.72;83.81
18697;BME280;22617;43.690;27.956;2022-11-20T17:01:37;98440.84;;;12.66;83.78
18697;BME280;22617;43.690;27.956;2022-11-20T17:06:44;98464.97;;;12.79;84.33
18697;BME280;22617;43.690;27.956;2022-11-20T17:11:48;98474.31;;;12.49;83.89
18697;BME280;22617;43.690;27.956;2022-11-20T17:16:52;98431.91;;;12.37;85.41
18697;BME280;22617;43.690;27.956;2022-11-20T17:21:57;98478.19;;;12.29;85.98
18697;BME280;22617;43.690;27.956;2022-11-20T17:27:00;98516.88;;;12.10;86.51
18697;BME280;22617;43.690;27.956;2022-11-20T17:32:04;98437.81;;;12.02;87.55
18697;BME280;22617;43.690;27.956;2022-11-20T17:37:09;98498.75;;;12.02;88.22
18697;BME280;22617;43.690;27.956;2022-11-20T17:42:12;98486.97;;;11.78;89.43
18697;BME280;22617;43.690;27.956;2022-11-20T17:47:31;98510.59;;;11.69;89.94
18697;BME280;22617;43.690;27.956;2022-11-20T17:52:35;98524.72;;;11.56;90.33
18697;BME280;22617;43.690;27.956;2022-11-20T17:57:39;98522.88;;;11.61;90.96
18697;BME280;22617;43.690;27.956;2022-11-20T18:03:02;98522.09;;;11.58;91.36
18697;BME280;22617;43.690;27.956;2022-11-20T18:08:07;98516.75;;;11.65;91.40
18697;BME280;22617;43.690;27.956;2022-11-20T18:13:10;98501.84;;;11.72;91.08
18697;BME280;22617;43.690;27.956;2022-11-20T18:18:14;98491.31;;;11.79;90.61
18697;BME280;22617;43.690;27.956;2022-11-20T18:23:18;98490.31;;;11.85;90.52
18697;BME280;22617;43.690;27.956;2022-11-20T18:28:22;98500.75;;;11.85;89.94
18697;BME280;22617;43.690;27.956;2022-11-20T18:33:25;98524.41;;;11.79;89.62
18697;BME280;22617;43.690;27.956;2022-11-20T18:38:30;98508.09;;;11.62;89.66
18697;BME280;22617;43.690;27.956;2022-11-20T18:43:35;98468.06;;;11.63;90.19
18697;BME280;22617;43.690;27.956;2022-11-20T18:48:55;98472.28;;;11.73;90.45
18697;BME280;22617;43.690;27.956;2022-11-20T18:54:01;98461.56;;;11.88;90.43
18697;BME280;22617;43.690;27.956;2022-11-20T18:59:06;98460.72;;;11.86;90.16
18697;BME280;22617;43.690;27.956;2022-11-20T19:04:10;98453.59;;;11.96;90.06
18697;BME280;22617;43.690;27.956;2022-11-20T19:09:15;98461.88;;;11.70;89.53
18697;BME280;22617;43.690;27.956;2022-11-20T19:14:19;98416.56;;;11.74;90.06
18697;BME280;22617;43.690;27.956;2022-11-20T19:19:22;98434.78;;;11.77;90.50
18697;BME280;22617;43.690;27.956;2022-11-20T19:24:28;98434.69;;;11.83;90.47
18697;BME280;22617;43.690;27.956;2022-11-20T19:29:32;98415.63;;;11.78;90.27
18697;BME280;22617;43.690;27.956;2022-11-20T19:34:36;98423.44;;;11.78;90.37
18697;BME280;22617;43.690;27.956;2022-11-20T19:39:40;98411.66;;;11.56;91.67
18697;BME280;22617;43.690;27.956;2022-11-20T19:44:44;98427.03;;;11.72;92.18
18697;BME280;22617;43.690;27.956;2022-11-20T19:49:47;98439.09;;;11.79;92.00
18697;BME280;22617;43.690;27.956;2022-11-20T19:54:52;98446.88;;;11.81;92.25
18697;BME280;22617;43.690;27.956;2022-11-20T19:59:55;98454.44;;;11.96;92.29
18697;BME280;22617;43.690;27.956;2022-11-20T20:04:59;98448.38;;;11.94;91.55
18697;BME280;22617;43.690;27.956;2022-11-20T20:10:07;98437.81;;;12.00;91.37
18697;BME280;22617;43.690;27.956;2022-11-20T20:15:10;98415.88;;;12.10;91.21
18697;BME280;22617;43.690;27.956;2022-11-20T20:20:14;98396.81;;;12.05;91.10
18697;BME280;22617;43.690;27.956;2022-11-20T20:25:19;98401.41;;;11.93;91.13
18697;BME280;22617;43.690;27.956;2022-11-20T20:30:22;98391.53;;;12.08;91.53
18697;BME280;22617;43.690;27.956;2022-11-20T20:35:26;98406.38;;;12.06;91.12
18697;BME280;22617;43.690;27.956;2022-11-20T20:40:30;98412.63;;;11.98;90.90
18697;BME280;22617;43.690;27.956;2022-11-20T20:45:34;98409.19;;;11.96;91.13
18697;BME280;22617;43.690;27.956;2022-11-20T20:50:38;98392.53;;;12.03;91.15
18697;BME280;22617;43.690;27.956;2022-11-20T20:55:52;98388.00;;;12.09;91.30
18697;BME280;22617;43.690;27.956;2022-11-20T21:01:00;98398.47;;;12.09;91.45
18697;BME280;22617;43.690;27.956;2022-11-20T21:06:05;98384.34;;;12.19;91.50
18697;BME280;22617;43.690;27.956;2022-11-20T21:11:11;98383.66;;;12.10;90.82
18697;BME280;22617;43.690;27.956;2022-11-20T21:16:16;98372.66;;;11.94;90.62
18697;BME280;22617;43.690;27.956;2022-11-20T21:21:20;98378.03;;;11.85;91.50
18697;BME280;22617;43.690;27.956;2022-11-20T21:26:42;98372.63;;;11.96;91.80
18697;BME280;22617;43.690;27.956;2022-11-20T21:31:46;98382.38;;;11.86;91.79
18697;BME280;22617;43.690;27.956;2022-11-20T21:36:49;98376.47;;;11.76;92.18
18697;BME280;22617;43.690;27.956;2022-11-20T21:41:54;98380.03;;;11.74;92.08
18697;BME280;22617;43.690;27.956;2022-11-20T21:46:58;98389.59;;;11.70;92.08
18697;BME280;22617;43.690;27.956;2022-11-20T21:52:01;98385.41;;;11.62;92.15
18697;BME280;22617;43.690;27.956;2022-11-20T21:57:06;98374.16;;;11.60;92.49
18697;BME280;22617;43.690;27.956;2022-11-20T22:02:10;98352.44;;;11.58;92.47
18697;BME280;22617;43.690;27.956;2022-11-20T22:07:13;98344.63;;;11.56;92.89
18697;BME280;22617;43.690;27.956;2022-11-20T22:12:18;98348.09;;;11.58;93.14
18697;BME280;22617;43.690;27.956;2022-11-20T22:17:21;98328.88;;;11.62;93.21
18697;BME280;22617;43.690;27.956;2022-11-20T22:22:45;98317.56;;;11.62;93.02
18697;BME280;22617;43.690;27.956;2022-11-20T22:27:50;98312.34;;;11.62;93.33
18697;BME280;22617;43.690;27.956;2022-11-20T22:32:53;98314.31;;;11.51;93.51
18697;BME280;22617;43.690;27.956;2022-11-20T22:37:57;98310.69;;;11.56;93.65
18697;BME280;22617;43.690;27.956;2022-11-20T22:43:02;98312.47;;;11.56;94.11
18697;BME280;22617;43.690;27.956;2022-11-20T22:48:05;98314.25;;;11.54;94.16
18697;BME280;22617;43.690;27.956;2022-11-20T22:53:08;98293.34;;;11.55;94.13
18697;BME280;22617;43.690;27.956;2022-11-20T22:58:13;98297.69;;;11.55;94.56
18697;BME280;22617;43.690;27.956;2022-11-20T23:03:17;98280.22;;;11.60;94.66
18697;BME280;22617;43.690;27.956;2022-11-20T23:08:20;98293.19;;;11.63;94.70
18697;BME280;22617;43.690;27.956;2022-11-20T23:13:25;98292.72;;;11.87;95.08
18697;BME280;22617;43.690;27.956;2022-11-20T23:18:29;98269.13;;;11.92;95.35
18697;BME280;22617;43.690;27.956;2022-11-20T23:23:32;98269.78;;;12.03;95.69
18697;BME280;22617;43.690;27.956;2022-11-20T23:28:38;98263.47;;;12.13;95.80
18697;BME280;22617;43.690;27.956;2022-11-20T23:33:43;98260.78;;;12.14;95.65
18697;BME280;22617;43.690;27.956;2022-11-20T23:38:46;98244.50;;;12.03;95.46
18697;BME280;22617;43.690;27.956;2022-11-20T23:43:51;98220.25;;;11.98;95.45
18697;BME280;22617;43.690;27.956;2022-11-20T23:48:55;98200.13;;;12.03;95.53
18697;BME280;22617;43.690;27.956;2022-11-20T23:53:58;98195.06;;;11.94;95.48
18697;BME280;22617;43.690;27.956;2022-11-20T23:59:07;98174.25;;;11.91;95.81
